createdAt,value
2022-10-22T00:01:38.960Z,12.90
2022-10-22T00:04:06.448Z,14.23
2022-10-22T00:06:33.401Z,13.97
2022-10-22T00:09:00.512Z,13.87
2022-10-22T00:11:27.448Z,13.63
2022-10-22T00:13:54.130Z,13.90
2022-10-22T00:16:21.240Z,14.57
2022-10-22T00:18:47.850Z,14.00
2022-10-22T00:21:14.512Z,14.40
2022-10-22T00:23:42.410Z,13.90
2022-10-22T00:26:09.150Z,13.63
2022-10-22T00:28:35.777Z,13.37
2022-10-22T00:31:02.529Z,13.33
2022-10-22T00:33:30.274Z,13.23
2022-10-22T00:35:56.935Z,13.07
2022-10-22T00:38:23.629Z,13.53
2022-10-22T00:40:50.499Z,11.87
2022-10-22T00:43:19.480Z,13.20
2022-10-22T00:45:46.660Z,13.57
2022-10-22T00:48:25.560Z,12.90
2022-10-22T00:51:04.212Z,13.37
2022-10-22T00:53:40.233Z,11.83
2022-10-22T00:56:07.424Z,12.43
2022-10-22T00:58:37.437Z,13.63
2022-10-22T01:01:06.022Z,13.10
2022-10-22T01:03:32.907Z,12.90
2022-10-22T01:06:01.605Z,12.70
2022-10-22T01:08:53.610Z,12.73
2022-10-22T01:11:42.766Z,12.63
2022-10-22T01:14:21.800Z,12.93
2022-10-22T01:17:13.782Z,12.47
2022-10-22T01:20:11.305Z,11.73
2022-10-22T01:23:05.198Z,12.00
2022-10-22T01:25:38.368Z,13.07
2022-10-22T01:28:23.865Z,11.60
2022-10-22T01:30:53.399Z,11.93
2022-10-22T01:33:22.711Z,12.50
2022-10-22T01:35:50.453Z,12.10
2022-10-22T01:38:20.324Z,13.20
2022-10-22T01:40:48.269Z,11.63
2022-10-22T01:43:15.167Z,12.20
2022-10-22T01:45:49.940Z,12.97
2022-10-22T01:48:49.664Z,12.60
2022-10-22T01:51:52.766Z,12.80
2022-10-22T01:54:39.122Z,12.40
2022-10-22T01:57:53.159Z,12.83
2022-10-22T02:00:20.252Z,12.80
2022-10-22T02:02:59.553Z,13.03
2022-10-22T02:05:49.069Z,12.50
2022-10-22T02:08:20.288Z,12.80
2022-10-22T02:10:48.484Z,12.30
2022-10-22T02:13:41.442Z,13.33
2022-10-22T02:16:12.488Z,12.67
2022-10-22T02:18:42.852Z,13.10
2022-10-22T02:21:09.863Z,12.63
2022-10-22T02:23:37.006Z,12.73
2022-10-22T02:26:19.387Z,11.87
2022-10-22T02:28:53.122Z,11.67
2022-10-22T02:31:24.619Z,13.23
2022-10-22T02:33:56.370Z,12.43
2022-10-22T02:36:24.654Z,12.43
2022-10-22T02:38:52.226Z,12.10
2022-10-22T02:41:20.216Z,12.23
2022-10-22T02:43:53.606Z,11.73
2022-10-22T02:46:20.460Z,12.53
2022-10-22T02:48:47.476Z,12.20
2022-10-22T02:51:14.359Z,11.47
2022-10-22T02:53:41.097Z,13.50
2022-10-22T02:56:07.935Z,13.40
2022-10-22T02:58:34.516Z,12.47
2022-10-22T03:01:01.272Z,13.03
2022-10-22T03:03:27.864Z,12.37
2022-10-22T03:05:54.433Z,13.33
2022-10-22T03:08:20.997Z,12.60
2022-10-22T03:10:47.577Z,12.67
2022-10-22T03:13:14.215Z,12.60
2022-10-22T03:15:40.929Z,12.90
2022-10-22T03:18:07.695Z,12.53
2022-10-22T03:20:34.258Z,11.90
2022-10-22T03:23:01.919Z,12.17
2022-10-22T03:25:31.022Z,12.53
2022-10-22T03:28:02.551Z,12.10
2022-10-22T03:30:29.158Z,13.20
2022-10-22T03:32:55.687Z,12.83
2022-10-22T03:35:22.372Z,12.70
2022-10-22T03:37:49.240Z,12.97
2022-10-22T03:40:16.221Z,12.80
2022-10-22T03:42:43.131Z,13.17
2022-10-22T03:45:10.409Z,12.93
2022-10-22T03:47:37.477Z,12.67
2022-10-22T03:50:06.266Z,12.07
2022-10-22T03:52:39.918Z,12.63
2022-10-22T03:55:07.490Z,12.43
2022-10-22T03:57:34.247Z,12.50
2022-10-22T04:00:00.883Z,12.77
2022-10-22T04:02:27.477Z,11.60
2022-10-22T04:04:54.150Z,12.83
2022-10-22T04:07:20.974Z,12.20
2022-10-22T04:09:47.540Z,12.23
2022-10-22T04:12:14.166Z,12.77
2022-10-22T04:14:40.805Z,12.50
2022-10-22T04:17:07.357Z,12.37
2022-10-22T04:19:34.008Z,12.40
2022-10-22T04:22:01.352Z,11.60
2022-10-22T04:24:28.183Z,12.33
2022-10-22T04:26:55.341Z,13.00
2022-10-22T04:29:22.064Z,11.93
2022-10-22T04:31:49.110Z,12.60
2022-10-22T04:34:15.755Z,11.93
2022-10-22T04:36:42.432Z,12.37
2022-10-22T04:39:09.012Z,12.10
2022-10-22T04:41:37.500Z,13.00
2022-10-22T04:44:04.867Z,13.13
2022-10-22T04:46:33.457Z,11.57
2022-10-22T04:49:00.332Z,12.00
2022-10-22T04:51:27.510Z,12.07
2022-10-22T04:53:54.765Z,12.27
2022-10-22T04:56:24.937Z,12.33
2022-10-22T04:59:03.019Z,12.47
2022-10-22T05:01:31.899Z,11.97
2022-10-22T05:04:00.868Z,12.10
2022-10-22T05:06:28.571Z,11.67
2022-10-22T05:08:58.141Z,11.80
2022-10-22T05:11:34.010Z,11.53
2022-10-22T05:14:04.930Z,11.47
2022-10-22T05:16:33.176Z,11.67
2022-10-22T05:19:01.558Z,11.77
2022-10-22T05:21:28.694Z,11.10
2022-10-22T05:23:56.533Z,12.30
2022-10-22T05:26:24.997Z,11.63
2022-10-22T05:28:52.138Z,12.30
2022-10-22T05:31:19.413Z,11.83
2022-10-22T05:33:46.684Z,13.00
2022-10-22T05:36:16.794Z,12.53
2022-10-22T05:38:43.350Z,13.10
2022-10-22T05:41:13.144Z,12.20
2022-10-22T05:43:40.266Z,11.43
2022-10-22T05:46:22.186Z,12.63
2022-10-22T05:49:00.614Z,12.33
2022-10-22T05:51:29.571Z,11.90
2022-10-22T05:54:01.410Z,12.50
2022-10-22T05:56:29.825Z,12.53
2022-10-22T05:58:56.944Z,13.07
2022-10-22T06:01:32.580Z,12.47
2022-10-22T06:04:01.269Z,13.10
2022-10-22T06:06:44.580Z,13.20
2022-10-22T06:09:19.816Z,12.57
2022-10-22T06:11:47.691Z,12.50
2022-10-22T06:14:15.232Z,12.80
2022-10-22T06:16:41.894Z,12.37
2022-10-22T06:19:09.902Z,12.67
2022-10-22T06:21:36.595Z,11.70
2022-10-22T06:24:03.442Z,12.13
2022-10-22T06:26:30.638Z,12.60
2022-10-22T06:28:58.315Z,13.10
2022-10-22T06:31:26.487Z,12.87
2022-10-22T06:33:53.118Z,13.40
2022-10-22T06:36:22.123Z,13.53
2022-10-22T06:38:52.742Z,12.57
2022-10-22T06:41:19.419Z,13.00
2022-10-22T06:43:49.391Z,13.50
2022-10-22T06:46:20.439Z,12.63
2022-10-22T06:48:56.718Z,12.73
2022-10-22T06:51:23.760Z,13.20
2022-10-22T06:53:50.702Z,13.17
2022-10-22T06:56:20.425Z,13.00
2022-10-22T06:58:51.734Z,14.20
2022-10-22T07:01:20.798Z,13.57
2022-10-22T07:03:47.489Z,12.63
2022-10-22T07:06:14.965Z,12.43
2022-10-22T07:08:42.663Z,13.17
2022-10-22T07:11:26.759Z,12.90
2022-10-22T07:13:58.566Z,11.23
2022-10-22T07:16:29.556Z,12.63
2022-10-22T07:18:58.999Z,12.80
2022-10-22T07:21:26.256Z,13.57
2022-10-22T07:23:52.966Z,13.43
2022-10-22T07:26:22.384Z,12.93
2022-10-22T07:28:49.031Z,14.57
2022-10-22T07:31:16.814Z,13.73
2022-10-22T07:33:43.740Z,12.83
2022-10-22T07:36:17.502Z,13.77
2022-10-22T07:38:46.036Z,13.63
2022-10-22T07:43:54.704Z,15.53
2022-10-22T07:46:23.398Z,14.50
2022-10-22T07:48:50.263Z,15.10
2022-10-22T07:51:16.992Z,14.07
2022-10-22T07:53:43.611Z,13.50
2022-10-22T07:56:10.974Z,13.63
2022-10-22T07:58:37.862Z,12.73
2022-10-22T08:01:05.925Z,12.40
2022-10-22T08:03:33.492Z,12.57
2022-10-22T08:06:00.900Z,12.03
2022-10-22T08:08:30.826Z,11.90
2022-10-22T08:11:00.133Z,11.97
2022-10-22T08:13:27.531Z,12.90
2022-10-22T08:15:57.293Z,11.67
2022-10-22T08:18:24.824Z,12.03
2022-10-22T08:20:51.799Z,12.10
2022-10-22T08:23:18.462Z,11.97
2022-10-22T08:25:45.419Z,11.47
2022-10-22T08:28:12.004Z,12.27
2022-10-22T08:30:40.174Z,12.27
2022-10-22T08:33:07.090Z,11.97
2022-10-22T08:35:33.779Z,12.13
2022-10-22T08:38:00.358Z,11.90
2022-10-22T08:40:37.368Z,12.50
2022-10-22T08:43:37.341Z,12.53
2022-10-22T08:46:16.868Z,11.73
2022-10-22T08:48:49.468Z,12.20
2022-10-22T08:51:19.312Z,11.40
2022-10-22T08:54:08.452Z,12.37
2022-10-22T08:56:37.266Z,11.50
2022-10-22T08:59:22.409Z,12.20
2022-10-22T09:01:55.304Z,11.80
2022-10-22T09:04:38.607Z,12.05
2022-10-22T09:07:05.326Z,12.77
2022-10-22T09:09:39.011Z,12.63
2022-10-22T09:12:08.876Z,12.80
2022-10-22T09:14:35.973Z,12.25
2022-10-22T09:17:28.081Z,12.37
2022-10-22T09:20:15.961Z,12.67
2022-10-22T09:22:59.224Z,12.17
2022-10-22T09:25:28.053Z,12.27
2022-10-22T09:27:58.466Z,13.20
2022-10-22T09:30:28.526Z,12.50
2022-10-22T09:33:01.668Z,12.25
2022-10-22T09:35:38.130Z,12.90
2022-10-22T09:38:08.489Z,12.70
2022-10-22T09:40:56.220Z,13.15
2022-10-22T09:43:23.246Z,12.03
2022-10-22T09:45:57.576Z,12.18
2022-10-22T09:48:32.258Z,12.60
2022-10-22T09:51:13.129Z,12.20
2022-10-22T09:53:43.765Z,11.57
2022-10-22T09:56:21.046Z,11.48
2022-10-22T09:58:51.038Z,10.70
2022-10-22T10:01:27.609Z,11.05
2022-10-22T10:03:54.360Z,11.10
2022-10-22T10:06:22.790Z,11.68
2022-10-22T10:08:50.065Z,11.68
2022-10-22T10:11:33.592Z,11.63
2022-10-22T10:14:21.724Z,12.18
2022-10-22T10:16:48.266Z,12.90
2022-10-22T10:19:44.188Z,12.75
2022-10-22T10:22:36.828Z,12.75
2022-10-22T10:25:28.486Z,11.57
2022-10-22T10:28:12.196Z,11.55
2022-10-22T10:30:54.957Z,12.00
2022-10-22T10:34:03.544Z,12.80
2022-10-22T10:36:49.257Z,11.97
2022-10-22T10:39:26.675Z,12.23
2022-10-22T10:42:22.077Z,12.80
2022-10-22T10:45:15.838Z,12.82
2022-10-22T10:47:54.398Z,13.20
2022-10-22T10:50:30.468Z,13.02
2022-10-22T10:53:14.276Z,13.43
2022-10-22T10:56:01.556Z,13.02
2022-10-22T10:59:03.253Z,13.05
2022-10-22T11:01:56.085Z,17.05
2022-10-22T11:04:59.525Z,13.38
2022-10-22T11:07:39.154Z,12.90
2022-10-22T11:10:25.069Z,13.40
2022-10-22T11:12:56.650Z,12.75
2022-10-22T11:15:35.152Z,12.90
2022-10-22T11:18:28.260Z,13.65
2022-10-22T11:21:04.032Z,12.82
2022-10-22T11:23:38.694Z,12.75
2022-10-22T11:26:11.442Z,13.25
2022-10-22T11:28:43.894Z,14.10
2022-10-22T11:31:15.751Z,13.65
2022-10-22T11:34:28.390Z,13.95
2022-10-22T11:36:55.951Z,15.23
2022-10-22T11:39:30.536Z,15.40
2022-10-22T11:41:59.338Z,15.02
2022-10-22T11:44:30.087Z,15.68
2022-10-22T11:47:08.221Z,14.68
2022-10-22T11:49:46.615Z,14.93
2022-10-22T11:52:32.857Z,15.02
2022-10-22T11:55:02.945Z,13.95
2022-10-22T11:57:39.730Z,13.52
2022-10-22T12:00:31.108Z,14.23
2022-10-22T12:03:34.950Z,14.50
2022-10-22T12:06:13.123Z,14.40
2022-10-22T12:08:56.775Z,14.00
2022-10-22T12:11:39.962Z,14.52
2022-10-22T12:14:32.434Z,12.73
2022-10-22T12:17:05.619Z,11.98
2022-10-22T12:19:42.520Z,11.60
2022-10-22T12:22:19.411Z,11.70
2022-10-22T12:24:49.476Z,12.27
2022-10-22T12:27:20.263Z,12.00
2022-10-22T12:29:53.450Z,10.68
2022-10-22T12:32:20.914Z,10.80
2022-10-22T12:37:21.713Z,9.40
2022-10-22T12:39:48.292Z,9.07
2022-10-22T12:42:17.275Z,9.00
2022-10-22T12:44:45.048Z,8.65
2022-10-22T12:47:16.978Z,8.35
2022-10-22T12:49:47.936Z,7.60
2022-10-22T12:52:19.374Z,7.30
2022-10-22T12:54:52.495Z,7.90
2022-10-22T12:57:20.804Z,6.97
2022-10-22T12:59:50.388Z,6.60
2022-10-22T13:02:25.098Z,6.75
2022-10-22T13:05:15.166Z,7.13
2022-10-22T13:07:46.472Z,6.03
2022-10-22T13:10:20.448Z,5.65
2022-10-22T13:12:51.360Z,5.68
2022-10-22T13:15:34.988Z,5.40
2022-10-22T13:18:20.919Z,4.63
2022-10-22T13:21:05.804Z,4.32
2022-10-22T13:23:34.092Z,11.13
2022-10-22T13:26:14.167Z,5.43
2022-10-22T13:28:41.176Z,5.72
2022-10-22T13:31:24.977Z,4.30
2022-10-22T13:34:11.694Z,4.13
2022-10-22T13:36:39.550Z,3.85
2022-10-22T13:39:08.046Z,3.90
2022-10-22T13:44:12.171Z,3.80
2022-10-22T13:46:42.552Z,3.75
2022-10-22T13:49:20.900Z,3.28
2022-10-22T13:51:48.014Z,3.20
2022-10-22T13:54:21.235Z,3.33
2022-10-22T13:56:47.993Z,3.22
2022-10-22T13:59:16.261Z,3.65
2022-10-22T14:01:45.656Z,3.35
2022-10-22T14:04:14.959Z,4.15
2022-10-22T14:06:41.756Z,3.28
2022-10-22T14:09:14.843Z,3.30
2022-10-22T14:11:41.647Z,3.50
2022-10-22T14:14:09.132Z,3.97
2022-10-22T14:16:37.389Z,3.30
2022-10-22T14:19:06.595Z,3.40
2022-10-22T14:21:37.858Z,3.47
2022-10-22T14:24:07.120Z,3.80
2022-10-22T14:26:36.002Z,3.45
2022-10-22T14:29:11.464Z,3.58
2022-10-22T14:34:15.675Z,3.33
2022-10-22T14:36:43.965Z,3.08
2022-10-22T14:39:11.066Z,3.50
2022-10-22T14:41:37.983Z,3.30
2022-10-22T14:44:04.706Z,3.58
2022-10-22T14:46:31.314Z,3.13
2022-10-22T14:48:57.873Z,3.53
2022-10-22T14:51:24.521Z,3.83
2022-10-22T14:53:51.093Z,3.22
2022-10-22T14:56:21.308Z,3.28
2022-10-22T14:58:48.691Z,3.00
2022-10-22T15:01:15.373Z,3.80
2022-10-22T15:03:42.012Z,2.95
2022-10-22T15:06:08.812Z,3.47
2022-10-22T15:08:35.505Z,3.05
2022-10-22T15:11:05.734Z,3.42
2022-10-22T15:13:33.611Z,4.00
2022-10-22T15:16:00.734Z,4.03
2022-10-22T15:18:28.108Z,3.47
2022-10-22T15:21:00.009Z,3.70
2022-10-22T15:23:27.382Z,3.45
2022-10-22T15:25:53.981Z,3.55
2022-10-22T15:28:20.600Z,3.60
2022-10-22T15:30:58.521Z,3.08
2022-10-22T15:33:26.140Z,3.83
2022-10-22T15:35:52.883Z,3.65
2022-10-22T15:38:19.849Z,4.75
2022-10-22T15:40:46.849Z,3.75
2022-10-22T15:43:13.925Z,3.38
2022-10-22T15:45:40.726Z,3.20
2022-10-22T15:48:07.431Z,3.58
2022-10-22T15:50:38.559Z,3.65
2022-10-22T15:53:05.215Z,3.85
2022-10-22T15:55:31.784Z,4.15
2022-10-22T15:58:00.631Z,3.85
2022-10-22T16:00:30.147Z,3.58
2022-10-22T16:02:56.774Z,3.53
2022-10-22T16:05:23.383Z,3.60
2022-10-22T16:07:51.363Z,3.85
2022-10-22T16:10:18.024Z,3.58
2022-10-22T16:12:44.774Z,3.67
2022-10-22T16:15:11.638Z,3.78
2022-10-22T16:17:38.379Z,4.20
2022-10-22T16:20:05.442Z,4.78
2022-10-22T16:22:32.086Z,4.65
2022-10-22T16:24:58.708Z,4.50
2022-10-22T16:27:25.318Z,4.95
2022-10-22T16:29:51.955Z,4.82
2022-10-22T16:32:18.595Z,5.50
2022-10-22T16:34:45.358Z,4.95
2022-10-22T16:37:11.974Z,5.43
2022-10-22T16:39:38.634Z,5.07
2022-10-22T16:42:05.481Z,5.38
2022-10-22T16:44:32.079Z,5.38
2022-10-22T16:46:58.680Z,5.57
2022-10-22T16:49:25.283Z,5.88
2022-10-22T16:51:51.835Z,6.05
2022-10-22T16:54:18.456Z,5.90
2022-10-22T16:56:45.082Z,5.47
2022-10-22T16:59:11.619Z,5.38
2022-10-22T17:01:41.189Z,5.63
2022-10-22T17:04:08.394Z,5.68
2022-10-22T17:06:35.111Z,5.82
2022-10-22T17:09:01.785Z,5.95
2022-10-22T17:11:34.475Z,6.07
2022-10-22T17:14:01.951Z,5.65
2022-10-22T17:16:28.532Z,6.50
2022-10-22T17:18:55.639Z,6.47
2022-10-22T17:21:23.338Z,6.75
2022-10-22T17:23:55.442Z,7.25
2022-10-22T17:26:23.425Z,7.13
2022-10-22T17:28:50.664Z,6.90
2022-10-22T17:31:23.838Z,7.15
2022-10-22T17:33:52.190Z,6.50
2022-10-22T17:36:20.602Z,7.82
2022-10-22T17:38:52.421Z,7.00
2022-10-22T17:41:22.152Z,6.35
2022-10-22T17:43:49.047Z,6.05
2022-10-22T17:46:24.057Z,5.90
2022-10-22T17:48:52.087Z,6.40
2022-10-22T17:51:20.576Z,5.47
2022-10-22T17:53:47.414Z,6.25
2022-10-22T17:56:16.594Z,5.82
2022-10-22T17:58:43.624Z,5.85
2022-10-22T18:01:30.381Z,5.60
2022-10-22T18:04:07.979Z,7.25
2022-10-22T18:06:35.118Z,7.20
2022-10-22T18:09:06.704Z,6.95
2022-10-22T18:11:34.351Z,6.72
2022-10-22T18:14:00.958Z,7.07
2022-10-22T18:16:27.555Z,6.07
2022-10-22T18:18:56.684Z,6.03
2022-10-22T18:21:25.434Z,5.50
2022-10-22T18:23:52.318Z,5.17
2022-10-22T18:26:21.568Z,4.97
2022-10-22T18:28:51.349Z,5.37
2022-10-22T18:31:20.708Z,4.60
2022-10-22T18:33:48.213Z,5.00
2022-10-22T18:36:19.098Z,4.60
2022-10-22T18:38:58.231Z,4.67
2022-10-22T18:41:25.544Z,4.55
2022-10-22T18:43:57.311Z,4.70
2022-10-22T18:46:24.883Z,4.35
2022-10-22T18:48:55.856Z,5.00
2022-10-22T18:51:24.130Z,4.57
2022-10-22T18:54:04.611Z,4.32
2022-10-22T18:56:39.111Z,4.65
2022-10-22T18:59:05.744Z,4.00
2022-10-22T19:01:35.397Z,4.00
2022-10-22T19:04:02.171Z,4.57
2022-10-22T19:06:34.529Z,4.50
2022-10-22T19:09:04.270Z,4.40
2022-10-22T19:11:31.453Z,4.00
2022-10-22T19:13:58.538Z,3.97
2022-10-22T19:16:26.654Z,4.07
2022-10-22T19:18:59.464Z,4.05
2022-10-22T19:21:26.615Z,3.70
2022-10-22T19:23:57.491Z,4.72
2022-10-22T19:26:26.357Z,4.65
2022-10-22T19:28:54.854Z,4.00
2022-10-22T19:31:23.436Z,4.40
2022-10-22T19:33:51.237Z,4.10
2022-10-22T19:36:19.160Z,4.83
2022-10-22T19:38:48.203Z,5.00
2022-10-22T19:41:17.840Z,4.95
2022-10-22T19:43:45.864Z,4.93
2022-10-22T19:46:15.097Z,5.00
2022-10-22T19:48:41.686Z,6.20
2022-10-22T19:51:10.941Z,5.50
2022-10-22T19:53:38.993Z,4.53
2022-10-22T19:56:07.635Z,6.22
2022-10-22T19:58:35.225Z,5.87
2022-10-22T20:01:07.330Z,6.32
2022-10-22T20:03:36.252Z,5.60
2022-10-22T20:06:08.211Z,4.60
2022-10-22T20:08:37.910Z,3.90
2022-10-22T20:11:07.307Z,3.77
2022-10-22T20:13:35.128Z,3.43
2022-10-22T20:16:01.855Z,3.23
2022-10-22T20:18:28.407Z,3.20
2022-10-22T20:20:54.967Z,3.30
2022-10-22T20:23:21.811Z,3.47
2022-10-22T20:25:48.748Z,3.00
2022-10-22T20:28:16.031Z,3.20
2022-10-22T20:30:44.211Z,3.30
2022-10-22T20:33:11.222Z,3.43
2022-10-22T20:35:38.366Z,3.40
2022-10-22T20:38:06.568Z,3.50
2022-10-22T20:40:33.265Z,3.50
2022-10-22T20:43:00.487Z,3.20
2022-10-22T20:45:27.751Z,3.60
2022-10-22T20:48:02.182Z,3.37
2022-10-22T20:50:32.024Z,3.40
2022-10-22T20:52:59.195Z,3.40
2022-10-22T20:55:26.336Z,3.43
2022-10-22T20:57:55.673Z,3.03
2022-10-22T21:00:22.283Z,3.03
2022-10-22T21:02:48.965Z,2.93
2022-10-22T21:05:15.735Z,3.00
2022-10-22T21:07:42.508Z,3.00
2022-10-22T21:10:09.536Z,2.93
2022-10-22T21:12:36.323Z,3.40
2022-10-22T21:15:03.767Z,3.05
2022-10-22T21:17:30.372Z,2.80
2022-10-22T21:19:57.086Z,3.67
2022-10-22T21:22:23.641Z,3.80
2022-10-22T21:24:50.194Z,3.80
2022-10-22T21:27:16.983Z,3.77
2022-10-22T21:29:43.877Z,3.43
2022-10-22T21:32:10.998Z,3.63
2022-10-22T21:34:39.006Z,3.87
2022-10-22T21:37:05.886Z,4.50
2022-10-22T21:39:32.468Z,3.70
2022-10-22T21:41:59.008Z,4.20
2022-10-22T21:44:25.555Z,3.90
2022-10-22T21:46:52.270Z,4.20
2022-10-22T21:49:19.222Z,3.80
2022-10-22T21:51:45.785Z,4.50
2022-10-22T21:54:12.771Z,4.47
2022-10-22T21:56:40.410Z,4.53
2022-10-22T21:59:07.187Z,4.20
2022-10-22T22:01:34.184Z,4.37
2022-10-22T22:04:00.911Z,4.40
2022-10-22T22:06:30.857Z,4.20
2022-10-22T22:08:59.732Z,4.10
2022-10-22T22:11:27.667Z,4.37
2022-10-22T22:13:55.670Z,4.20
2022-10-22T22:16:28.098Z,4.33
2022-10-22T22:19:00.129Z,4.53
2022-10-22T22:21:27.380Z,4.63
2022-10-22T22:23:54.179Z,4.77
2022-10-22T22:26:26.730Z,4.77
2022-10-22T22:28:57.090Z,4.97
2022-10-22T22:31:26.780Z,5.20
2022-10-22T22:34:01.778Z,4.90
2022-10-22T22:36:32.103Z,5.03
2022-10-22T22:38:58.754Z,5.13
2022-10-22T22:41:25.399Z,5.10
2022-10-22T22:43:52.016Z,5.77
2022-10-22T22:46:18.631Z,5.20
2022-10-22T22:48:48.538Z,5.50
2022-10-22T22:51:15.854Z,5.73
2022-10-22T22:53:42.482Z,5.97
2022-10-22T22:56:18.142Z,5.30
2022-10-22T22:58:45.102Z,5.73
2022-10-22T23:01:17.737Z,5.80
2022-10-22T23:03:46.729Z,5.90
2022-10-22T23:06:14.220Z,5.40
2022-10-22T23:08:41.654Z,5.77
2022-10-22T23:11:13.750Z,5.80
2022-10-22T23:13:41.903Z,6.03
2022-10-22T23:16:17.363Z,5.60
2022-10-22T23:18:46.904Z,5.10
2022-10-22T23:21:18.845Z,5.80
2022-10-22T23:23:47.582Z,5.70
2022-10-22T23:26:16.635Z,5.83
2022-10-22T23:28:43.391Z,6.13
2022-10-22T23:31:14.625Z,6.63
2022-10-22T23:33:41.879Z,6.87
2022-10-22T23:36:09.179Z,5.50
2022-10-22T23:38:37.862Z,5.60
2022-10-22T23:41:05.089Z,5.73
2022-10-22T23:43:36.089Z,5.27
2022-10-22T23:46:09.174Z,5.73
2022-10-22T23:48:36.581Z,5.30
2022-10-22T23:51:08.632Z,5.83
2022-10-22T23:53:35.464Z,5.93
2022-10-22T23:56:07.627Z,5.83
2022-10-22T23:58:34.799Z,6.23
